sensor_id;sensor_type;location;lat;lon;timestamp;temperature;humidity
336;DHT22;156;48.738;9.228;2024-01-25T00:02:13;9.40;1.00
336;DHT22;156;48.738;9.228;2024-01-25T00:04:40;9.40;1.00
336;DHT22;156;48.738;9.228;2024-01-25T00:07:09;9.50;1.00
336;DHT22;156;48.738;9.228;2024-01-25T00:09:36;9.50;1.00
336;DHT22;156;48.738;9.228;2024-01-25T00:12:03;9.50;1.00
336;DHT22;156;48.738;9.228;2024-01-25T00:14:30;9.50;1.00
336;DHT22;156;48.738;9.228;2024-01-25T00:16:57;9.50;1.00
336;DHT22;156;48.738;9.228;2024-01-25T00:19:24;9.50;1.00
336;DHT22;156;48.738;9.228;2024-01-25T00:21:51;9.50;1.00
336;DHT22;156;48.738;9.228;2024-01-25T00:24:19;9.50;1.00
336;DHT22;156;48.738;9.228;2024-01-25T00:26:46;9.60;1.00
336;DHT22;156;48.738;9.228;2024-01-25T00:29:14;9.50;1.00
336;DHT22;156;48.738;9.228;2024-01-25T00:31:41;9.50;1.00
336;DHT22;156;48.738;9.228;2024-01-25T00:34:08;9.50;11.30
336;DHT22;156;48.738;9.228;2024-01-25T00:36:36;9.50;35.10
336;DHT22;156;48.738;9.228;2024-01-25T00:39:03;9.50;68.00
336;DHT22;156;48.738;9.228;2024-01-25T00:41:32;9.50;99.90
336;DHT22;156;48.738;9.228;2024-01-25T00:44:00;9.50;99.90
336;DHT22;156;48.738;9.228;2024-01-25T00:46:27;9.50;99.90
336;DHT22;156;48.738;9.228;2024-01-25T00:48:55;9.50;99.90
336;DHT22;156;48.738;9.228;2024-01-25T00:51:22;9.50;99.90
336;DHT22;156;48.738;9.228;2024-01-25T00:53:50;9.50;99.90
336;DHT22;156;48.738;9.228;2024-01-25T00:56:17;9.50;99.90
336;DHT22;156;48.738;9.228;2024-01-25T00:58:46;9.60;99.90
336;DHT22;156;48.738;9.228;2024-01-25T01:01:13;9.60;99.90
336;DHT22;156;48.738;9.228;2024-01-25T01:03:41;9.50;99.90
336;DHT22;156;48.738;9.228;2024-01-25T01:06:09;9.50;99.90
336;DHT22;156;48.738;9.228;2024-01-25T01:08:36;9.60;99.90
336;DHT22;156;48.738;9.228;2024-01-25T01:11:04;9.50;99.90
336;DHT22;156;48.738;9.228;2024-01-25T01:13:30;9.60;99.90
336;DHT22;156;48.738;9.228;2024-01-25T01:15:59;9.60;99.90
336;DHT22;156;48.738;9.228;2024-01-25T01:18:26;9.50;99.90
336;DHT22;156;48.738;9.228;2024-01-25T01:20:53;9.50;99.90
336;DHT22;156;48.738;9.228;2024-01-25T01:23:19;9.60;99.90
336;DHT22;156;48.738;9.228;2024-01-25T01:25:46;9.50;99.90
336;DHT22;156;48.738;9.228;2024-01-25T01:28:13;9.50;99.90
336;DHT22;156;48.738;9.228;2024-01-25T01:30:40;9.50;99.90
336;DHT22;156;48.738;9.228;2024-01-25T01:33:09;9.50;99.90
336;DHT22;156;48.738;9.228;2024-01-25T01:35:36;9.50;99.90
336;DHT22;156;48.738;9.228;2024-01-25T01:38:03;9.50;99.90
336;DHT22;156;48.738;9.228;2024-01-25T01:40:30;9.50;99.90
336;DHT22;156;48.738;9.228;2024-01-25T01:43:00;9.50;99.90
336;DHT22;156;48.738;9.228;2024-01-25T01:45:27;9.50;99.90
336;DHT22;156;48.738;9.228;2024-01-25T01:47:55;9.50;99.90
336;DHT22;156;48.738;9.228;2024-01-25T01:50:24;9.40;99.90
336;DHT22;156;48.738;9.228;2024-01-25T01:52:51;9.40;99.90
336;DHT22;156;48.738;9.228;2024-01-25T01:55:18;9.40;99.90
336;DHT22;156;48.738;9.228;2024-01-25T01:57:47;9.40;99.90
336;DHT22;156;48.738;9.228;2024-01-25T02:00:18;9.50;99.90
336;DHT22;156;48.738;9.228;2024-01-25T02:02:46;9.40;99.90
336;DHT22;156;48.738;9.228;2024-01-25T02:05:14;9.40;99.90
336;DHT22;156;48.738;9.228;2024-01-25T02:07:42;9.40;99.90
336;DHT22;156;48.738;9.228;2024-01-25T02:10:09;9.40;99.90
336;DHT22;156;48.738;9.228;2024-01-25T02:12:36;9.40;99.90
336;DHT22;156;48.738;9.228;2024-01-25T02:15:05;9.30;99.90
336;DHT22;156;48.738;9.228;2024-01-25T02:17:32;9.30;99.90
336;DHT22;156;48.738;9.228;2024-01-25T02:19:59;9.30;99.90
336;DHT22;156;48.738;9.228;2024-01-25T02:22:27;9.30;99.90
336;DHT22;156;48.738;9.228;2024-01-25T02:24:54;9.20;99.90
336;DHT22;156;48.738;9.228;2024-01-25T02:27:21;9.30;99.90
336;DHT22;156;48.738;9.228;2024-01-25T02:29:48;9.20;99.90
336;DHT22;156;48.738;9.228;2024-01-25T02:32:15;9.20;99.90
336;DHT22;156;48.738;9.228;2024-01-25T02:34:42;9.20;99.90
336;DHT22;156;48.738;9.228;2024-01-25T02:37:08;9.30;99.90
336;DHT22;156;48.738;9.228;2024-01-25T02:39:39;9.20;97.20
336;DHT22;156;48.738;9.228;2024-01-25T02:42:06;9.20;99.90
336;DHT22;156;48.738;9.228;2024-01-25T02:44:33;9.20;97.70
336;DHT22;156;48.738;9.228;2024-01-25T02:46:59;9.20;90.00
336;DHT22;156;48.738;9.228;2024-01-25T02:49:26;9.20;73.80
336;DHT22;156;48.738;9.228;2024-01-25T02:51:53;9.10;37.80
336;DHT22;156;48.738;9.228;2024-01-25T02:54:20;9.10;36.20
336;DHT22;156;48.738;9.228;2024-01-25T02:56:48;9.20;36.80
336;DHT22;156;48.738;9.228;2024-01-25T02:59:15;9.10;37.50
336;DHT22;156;48.738;9.228;2024-01-25T03:01:43;9.10;44.80
336;DHT22;156;48.738;9.228;2024-01-25T03:04:10;9.00;89.20
336;DHT22;156;48.738;9.228;2024-01-25T03:06:37;9.00;92.80
336;DHT22;156;48.738;9.228;2024-01-25T03:09:04;9.00;90.70
336;DHT22;156;48.738;9.228;2024-01-25T03:11:31;9.00;99.90
336;DHT22;156;48.738;9.228;2024-01-25T03:14:00;9.00;99.90
336;DHT22;156;48.738;9.228;2024-01-25T03:16:27;9.00;99.90
336;DHT22;156;48.738;9.228;2024-01-25T03:18:53;8.90;99.90
336;DHT22;156;48.738;9.228;2024-01-25T03:21:20;9.00;99.90
336;DHT22;156;48.738;9.228;2024-01-25T03:23:47;9.00;99.90
336;DHT22;156;48.738;9.228;2024-01-25T03:26:14;9.00;99.90
336;DHT22;156;48.738;9.228;2024-01-25T03:28:41;9.00;99.90
336;DHT22;156;48.738;9.228;2024-01-25T03:31:09;9.00;99.90
336;DHT22;156;48.738;9.228;2024-01-25T03:33:38;9.00;99.90
336;DHT22;156;48.738;9.228;2024-01-25T03:36:06;8.90;99.90
336;DHT22;156;48.738;9.228;2024-01-25T03:38:33;8.90;99.90
336;DHT22;156;48.738;9.228;2024-01-25T03:40:59;8.90;99.90
336;DHT22;156;48.738;9.228;2024-01-25T03:43:26;8.80;99.90
336;DHT22;156;48.738;9.228;2024-01-25T03:45:54;8.90;99.90
336;DHT22;156;48.738;9.228;2024-01-25T03:48:22;8.80;99.90
336;DHT22;156;48.738;9.228;2024-01-25T03:50:49;8.80;99.90
336;DHT22;156;48.738;9.228;2024-01-25T03:53:16;8.80;99.90
336;DHT22;156;48.738;9.228;2024-01-25T03:55:43;8.80;99.90
336;DHT22;156;48.738;9.228;2024-01-25T03:58:10;8.80;99.90
336;DHT22;156;48.738;9.228;2024-01-25T04:00:37;8.80;99.90
336;DHT22;156;48.738;9.228;2024-01-25T04:03:04;8.70;99.90
336;DHT22;156;48.738;9.228;2024-01-25T04:05:32;8.80;99.90
336;DHT22;156;48.738;9.228;2024-01-25T04:07:59;8.80;99.90
336;DHT22;156;48.738;9.228;2024-01-25T04:10:26;8.80;99.90
336;DHT22;156;48.738;9.228;2024-01-25T04:12:54;8.80;99.90
336;DHT22;156;48.738;9.228;2024-01-25T04:15:21;8.70;99.90
336;DHT22;156;48.738;9.228;2024-01-25T04:17:48;8.70;1.00
336;DHT22;156;48.738;9.228;2024-01-25T04:20:15;8.70;1.00
336;DHT22;156;48.738;9.228;2024-01-25T04:22:44;8.70;1.00
336;DHT22;156;48.738;9.228;2024-01-25T04:25:11;8.70;1.00
336;DHT22;156;48.738;9.228;2024-01-25T04:27:38;8.60;1.00
336;DHT22;156;48.738;9.228;2024-01-25T04:30:06;8.60;1.00
336;DHT22;156;48.738;9.228;2024-01-25T04:32:39;8.50;1.00
336;DHT22;156;48.738;9.228;2024-01-25T04:35:08;8.60;1.00
336;DHT22;156;48.738;9.228;2024-01-25T04:37:35;8.50;1.00
336;DHT22;156;48.738;9.228;2024-01-25T04:40:04;8.50;99.90
336;DHT22;156;48.738;9.228;2024-01-25T04:42:31;8.50;99.90
336;DHT22;156;48.738;9.228;2024-01-25T04:44:58;8.50;99.90
336;DHT22;156;48.738;9.228;2024-01-25T04:47:25;8.50;99.90
336;DHT22;156;48.738;9.228;2024-01-25T04:49:52;8.50;99.90
336;DHT22;156;48.738;9.228;2024-01-25T04:52:19;8.50;99.90
336;DHT22;156;48.738;9.228;2024-01-25T04:54:46;8.50;99.90
336;DHT22;156;48.738;9.228;2024-01-25T04:57:14;8.50;99.90
336;DHT22;156;48.738;9.228;2024-01-25T04:59:41;8.40;99.90
336;DHT22;156;48.738;9.228;2024-01-25T05:02:08;8.40;99.90
336;DHT22;156;48.738;9.228;2024-01-25T05:04:35;8.50;99.90
336;DHT22;156;48.738;9.228;2024-01-25T05:07:02;8.40;99.90
336;DHT22;156;48.738;9.228;2024-01-25T05:09:29;8.40;99.90
336;DHT22;156;48.738;9.228;2024-01-25T05:11:55;8.40;99.90
336;DHT22;156;48.738;9.228;2024-01-25T05:14:25;8.40;38.50
336;DHT22;156;48.738;9.228;2024-01-25T05:16:52;8.40;23.60
336;DHT22;156;48.738;9.228;2024-01-25T05:19:19;8.30;26.00
336;DHT22;156;48.738;9.228;2024-01-25T05:21:46;8.30;74.90
336;DHT22;156;48.738;9.228;2024-01-25T05:24:13;8.30;65.20
336;DHT22;156;48.738;9.228;2024-01-25T05:26:40;8.30;90.40
336;DHT22;156;48.738;9.228;2024-01-25T05:29:07;8.30;83.70
336;DHT22;156;48.738;9.228;2024-01-25T05:31:35;8.20;46.60
336;DHT22;156;48.738;9.228;2024-01-25T05:34:02;8.10;74.30
336;DHT22;156;48.738;9.228;2024-01-25T05:36:29;8.10;97.80
336;DHT22;156;48.738;9.228;2024-01-25T05:38:56;8.10;90.40
336;DHT22;156;48.738;9.228;2024-01-25T05:41:23;8.10;84.90
336;DHT22;156;48.738;9.228;2024-01-25T05:43:50;8.00;59.10
336;DHT22;156;48.738;9.228;2024-01-25T05:46:17;8.00;91.00
336;DHT22;156;48.738;9.228;2024-01-25T05:48:45;8.00;99.90
336;DHT22;156;48.738;9.228;2024-01-25T05:51:12;8.00;99.90
336;DHT22;156;48.738;9.228;2024-01-25T05:53:39;7.90;99.90
336;DHT22;156;48.738;9.228;2024-01-25T05:56:06;7.80;99.90
336;DHT22;156;48.738;9.228;2024-01-25T05:58:33;7.80;99.90
336;DHT22;156;48.738;9.228;2024-01-25T06:01:00;7.80;99.90
336;DHT22;156;48.738;9.228;2024-01-25T06:03:28;7.70;99.90
336;DHT22;156;48.738;9.228;2024-01-25T06:05:56;7.70;99.90
336;DHT22;156;48.738;9.228;2024-01-25T06:08:24;7.70;99.90
336;DHT22;156;48.738;9.228;2024-01-25T06:10:51;7.70;99.90
336;DHT22;156;48.738;9.228;2024-01-25T06:13:18;7.70;99.90
336;DHT22;156;48.738;9.228;2024-01-25T06:15:45;7.60;99.90
336;DHT22;156;48.738;9.228;2024-01-25T06:18:12;7.60;99.90
336;DHT22;156;48.738;9.228;2024-01-25T06:20:38;7.60;1.00
336;DHT22;156;48.738;9.228;2024-01-25T06:23:07;7.60;1.00
336;DHT22;156;48.738;9.228;2024-01-25T06:25:34;7.60;1.00
336;DHT22;156;48.738;9.228;2024-01-25T06:28:01;7.60;1.00
336;DHT22;156;48.738;9.228;2024-01-25T06:30:29;7.60;1.00
336;DHT22;156;48.738;9.228;2024-01-25T06:32:56;7.50;1.00
336;DHT22;156;48.738;9.228;2024-01-25T06:35:23;7.50;1.00
336;DHT22;156;48.738;9.228;2024-01-25T06:37:50;7.50;1.00
336;DHT22;156;48.738;9.228;2024-01-25T06:40:18;7.40;1.00
336;DHT22;156;48.738;9.228;2024-01-25T06:42:45;7.40;1.00
336;DHT22;156;48.738;9.228;2024-01-25T06:45:12;7.40;1.00
336;DHT22;156;48.738;9.228;2024-01-25T06:47:39;7.40;1.00
336;DHT22;156;48.738;9.228;2024-01-25T06:50:07;7.30;1.00
336;DHT22;156;48.738;9.228;2024-01-25T06:52:34;7.30;1.00
336;DHT22;156;48.738;9.228;2024-01-25T06:55:01;7.30;78.70
336;DHT22;156;48.738;9.228;2024-01-25T06:57:29;7.30;69.30
336;DHT22;156;48.738;9.228;2024-01-25T06:59:56;7.20;99.90
336;DHT22;156;48.738;9.228;2024-01-25T07:02:23;7.20;99.90
336;DHT22;156;48.738;9.228;2024-01-25T07:04:50;7.20;99.90
336;DHT22;156;48.738;9.228;2024-01-25T07:07:18;7.10;99.90
336;DHT22;156;48.738;9.228;2024-01-25T07:09:45;7.10;99.90
336;DHT22;156;48.738;9.228;2024-01-25T07:12:12;7.10;99.90
336;DHT22;156;48.738;9.228;2024-01-25T07:14:40;7.10;99.90
336;DHT22;156;48.738;9.228;2024-01-25T07:17:07;7.20;99.90
336;DHT22;156;48.738;9.228;2024-01-25T07:19:34;7.10;90.00
336;DHT22;156;48.738;9.228;2024-01-25T07:22:01;7.10;94.30
336;DHT22;156;48.738;9.228;2024-01-25T07:24:28;7.10;50.80
336;DHT22;156;48.738;9.228;2024-01-25T07:26:55;7.10;99.90
336;DHT22;156;48.738;9.228;2024-01-25T07:29:22;7.00;43.30
336;DHT22;156;48.738;9.228;2024-01-25T07:31:50;6.90;93.10
336;DHT22;156;48.738;9.228;2024-01-25T07:34:17;6.90;99.90
336;DHT22;156;48.738;9.228;2024-01-25T07:36:44;6.90;99.90
336;DHT22;156;48.738;9.228;2024-01-25T07:39:11;6.90;99.90
336;DHT22;156;48.738;9.228;2024-01-25T07:41:38;6.90;99.90
336;DHT22;156;48.738;9.228;2024-01-25T07:44:05;6.90;99.90
336;DHT22;156;48.738;9.228;2024-01-25T07:46:32;6.80;99.90
336;DHT22;156;48.738;9.228;2024-01-25T07:49:00;6.80;99.90
336;DHT22;156;48.738;9.228;2024-01-25T07:51:27;6.80;99.90
336;DHT22;156;48.738;9.228;2024-01-25T07:53:54;6.80;99.90
336;DHT22;156;48.738;9.228;2024-01-25T07:56:21;6.90;99.90
336;DHT22;156;48.738;9.228;2024-01-25T07:58:48;6.90;99.90
336;DHT22;156;48.738;9.228;2024-01-25T08:01:18;6.90;99.90
336;DHT22;156;48.738;9.228;2024-01-25T08:03:45;7.00;30.60
336;DHT22;156;48.738;9.228;2024-01-25T08:06:13;7.00;1.00
336;DHT22;156;48.738;9.228;2024-01-25T08:08:40;7.10;1.00
336;DHT22;156;48.738;9.228;2024-01-25T08:11:07;7.10;1.00
336;DHT22;156;48.738;9.228;2024-01-25T08:13:34;7.10;1.00
336;DHT22;156;48.738;9.228;2024-01-25T08:16:01;7.20;1.00
336;DHT22;156;48.738;9.228;2024-01-25T08:18:28;7.20;1.00
336;DHT22;156;48.738;9.228;2024-01-25T08:20:55;7.30;1.00
336;DHT22;156;48.738;9.228;2024-01-25T08:23:24;7.30;1.00
336;DHT22;156;48.738;9.228;2024-01-25T08:25:50;7.30;1.00
336;DHT22;156;48.738;9.228;2024-01-25T08:28:17;7.30;1.00
336;DHT22;156;48.738;9.228;2024-01-25T08:30:45;7.40;1.00
336;DHT22;156;48.738;9.228;2024-01-25T08:33:13;7.40;1.00
336;DHT22;156;48.738;9.228;2024-01-25T08:35:40;7.50;1.00
336;DHT22;156;48.738;9.228;2024-01-25T08:38:07;7.50;1.00
336;DHT22;156;48.738;9.228;2024-01-25T08:40:36;7.50;1.00
336;DHT22;156;48.738;9.228;2024-01-25T08:43:03;7.60;1.00
336;DHT22;156;48.738;9.228;2024-01-25T08:45:30;7.60;1.00
336;DHT22;156;48.738;9.228;2024-01-25T08:47:57;7.70;1.00
336;DHT22;156;48.738;9.228;2024-01-25T08:50:25;7.80;99.90
336;DHT22;156;48.738;9.228;2024-01-25T08:52:52;7.90;99.90
336;DHT22;156;48.738;9.228;2024-01-25T08:55:19;7.90;99.90
336;DHT22;156;48.738;9.228;2024-01-25T08:57:48;7.90;99.90
336;DHT22;156;48.738;9.228;2024-01-25T09:00:15;8.00;99.90
336;DHT22;156;48.738;9.228;2024-01-25T09:02:42;8.00;99.90
336;DHT22;156;48.738;9.228;2024-01-25T09:05:09;8.10;99.90
336;DHT22;156;48.738;9.228;2024-01-25T09:07:37;8.20;99.90
336;DHT22;156;48.738;9.228;2024-01-25T09:10:05;8.20;99.90
336;DHT22;156;48.738;9.228;2024-01-25T09:12:32;8.30;99.90
336;DHT22;156;48.738;9.228;2024-01-25T09:15:00;8.30;99.90
336;DHT22;156;48.738;9.228;2024-01-25T09:17:28;8.40;99.90
336;DHT22;156;48.738;9.228;2024-01-25T09:19:55;8.40;99.90
336;DHT22;156;48.738;9.228;2024-01-25T09:22:24;8.40;1.00
336;DHT22;156;48.738;9.228;2024-01-25T09:24:52;8.40;1.00
336;DHT22;156;48.738;9.228;2024-01-25T09:27:19;8.40;1.00
336;DHT22;156;48.738;9.228;2024-01-25T09:29:46;8.30;1.00
336;DHT22;156;48.738;9.228;2024-01-25T09:32:14;8.40;1.00
336;DHT22;156;48.738;9.228;2024-01-25T09:34:41;8.50;1.00
336;DHT22;156;48.738;9.228;2024-01-25T09:37:08;8.40;1.00
336;DHT22;156;48.738;9.228;2024-01-25T09:39:35;8.40;1.00
336;DHT22;156;48.738;9.228;2024-01-25T09:42:03;8.40;1.00
336;DHT22;156;48.738;9.228;2024-01-25T09:44:30;8.50;1.00
336;DHT22;156;48.738;9.228;2024-01-25T09:46:57;8.60;1.00
336;DHT22;156;48.738;9.228;2024-01-25T09:49:26;8.70;1.00
336;DHT22;156;48.738;9.228;2024-01-25T09:51:53;8.70;1.00
336;DHT22;156;48.738;9.228;2024-01-25T09:54:21;8.70;1.00
336;DHT22;156;48.738;9.228;2024-01-25T09:56:50;8.70;1.00
336;DHT22;156;48.738;9.228;2024-01-25T09:59:18;8.60;1.00
336;DHT22;156;48.738;9.228;2024-01-25T10:01:45;8.50;1.00
336;DHT22;156;48.738;9.228;2024-01-25T10:04:14;8.60;1.00
336;DHT22;156;48.738;9.228;2024-01-25T10:06:42;8.70;1.00
336;DHT22;156;48.738;9.228;2024-01-25T10:09:09;8.80;1.00
336;DHT22;156;48.738;9.228;2024-01-25T10:11:39;8.80;1.00
336;DHT22;156;48.738;9.228;2024-01-25T10:14:06;8.70;1.00
336;DHT22;156;48.738;9.228;2024-01-25T10:16:34;8.70;1.00
336;DHT22;156;48.738;9.228;2024-01-25T10:19:01;8.70;1.00
336;DHT22;156;48.738;9.228;2024-01-25T10:21:32;8.80;1.00
336;DHT22;156;48.738;9.228;2024-01-25T10:24:00;8.90;1.00
336;DHT22;156;48.738;9.228;2024-01-25T10:26:28;8.90;1.00
336;DHT22;156;48.738;9.228;2024-01-25T10:28:55;9.00;1.00
336;DHT22;156;48.738;9.228;2024-01-25T10:31:23;9.00;1.00
336;DHT22;156;48.738;9.228;2024-01-25T10:33:52;9.10;1.00
336;DHT22;156;48.738;9.228;2024-01-25T10:36:21;9.10;1.00
336;DHT22;156;48.738;9.228;2024-01-25T10:38:49;9.00;1.00
336;DHT22;156;48.738;9.228;2024-01-25T10:41:19;9.00;1.00
336;DHT22;156;48.738;9.228;2024-01-25T10:43:46;9.10;1.00
336;DHT22;156;48.738;9.228;2024-01-25T10:46:13;9.10;1.00
336;DHT22;156;48.738;9.228;2024-01-25T10:48:41;9.20;1.00
336;DHT22;156;48.738;9.228;2024-01-25T10:51:09;9.30;1.00
336;DHT22;156;48.738;9.228;2024-01-25T10:53:37;9.30;1.00
336;DHT22;156;48.738;9.228;2024-01-25T10:56:05;9.50;1.00
336;DHT22;156;48.738;9.228;2024-01-25T10:58:33;9.60;1.00
336;DHT22;156;48.738;9.228;2024-01-25T11:01:02;9.60;99.90
336;DHT22;156;48.738;9.228;2024-01-25T11:03:29;9.60;99.90
336;DHT22;156;48.738;9.228;2024-01-25T11:06:06;9.70;1.00
336;DHT22;156;48.738;9.228;2024-01-25T11:08:33;9.80;1.00
336;DHT22;156;48.738;9.228;2024-01-25T11:11:05;9.80;99.90
336;DHT22;156;48.738;9.228;2024-01-25T11:13:34;9.90;99.90
336;DHT22;156;48.738;9.228;2024-01-25T11:16:12;10.00;99.90
336;DHT22;156;48.738;9.228;2024-01-25T11:18:48;10.00;99.90
336;DHT22;156;48.738;9.228;2024-01-25T11:21:28;10.10;99.90
336;DHT22;156;48.738;9.228;2024-01-25T11:24:01;10.10;99.90
336;DHT22;156;48.738;9.228;2024-01-25T11:26:29;10.30;99.90
336;DHT22;156;48.738;9.228;2024-01-25T11:28:57;10.60;99.90
336;DHT22;156;48.738;9.228;2024-01-25T11:31:26;10.20;99.90
336;DHT22;156;48.738;9.228;2024-01-25T11:33:56;10.00;99.90
336;DHT22;156;48.738;9.228;2024-01-25T11:36:23;10.00;99.90
336;DHT22;156;48.738;9.228;2024-01-25T11:38:51;10.10;99.90
336;DHT22;156;48.738;9.228;2024-01-25T11:41:18;10.10;99.90
336;DHT22;156;48.738;9.228;2024-01-25T11:43:45;10.20;99.90
336;DHT22;156;48.738;9.228;2024-01-25T11:46:16;10.30;99.90
336;DHT22;156;48.738;9.228;2024-01-25T11:48:43;10.50;99.90
336;DHT22;156;48.738;9.228;2024-01-25T11:51:10;10.90;99.90
336;DHT22;156;48.738;9.228;2024-01-25T11:53:38;10.90;99.90
336;DHT22;156;48.738;9.228;2024-01-25T11:56:06;10.70;99.90
336;DHT22;156;48.738;9.228;2024-01-25T11:58:34;10.90;99.90
336;DHT22;156;48.738;9.228;2024-01-25T12:01:01;10.90;99.90
336;DHT22;156;48.738;9.228;2024-01-25T12:03:32;11.20;99.90
336;DHT22;156;48.738;9.228;2024-01-25T12:05:59;11.70;99.90
336;DHT22;156;48.738;9.228;2024-01-25T12:08:26;12.20;99.90
336;DHT22;156;48.738;9.228;2024-01-25T12:11:03;12.10;99.90
336;DHT22;156;48.738;9.228;2024-01-25T12:13:32;12.00;99.90
336;DHT22;156;48.738;9.228;2024-01-25T12:15:59;11.80;82.10
336;DHT22;156;48.738;9.228;2024-01-25T12:18:27;12.00;74.50
336;DHT22;156;48.738;9.228;2024-01-25T12:20:58;12.30;57.80
336;DHT22;156;48.738;9.228;2024-01-25T12:23:31;12.10;1.00
336;DHT22;156;48.738;9.228;2024-01-25T12:25:59;12.00;1.00
336;DHT22;156;48.738;9.228;2024-01-25T12:28:26;11.50;1.00
336;DHT22;156;48.738;9.228;2024-01-25T12:30:54;11.40;1.00
336;DHT22;156;48.738;9.228;2024-01-25T12:33:21;11.30;1.00
336;DHT22;156;48.738;9.228;2024-01-25T12:35:47;11.00;1.00
336;DHT22;156;48.738;9.228;2024-01-25T12:38:16;10.70;1.00
336;DHT22;156;48.738;9.228;2024-01-25T12:40:43;10.70;1.00
336;DHT22;156;48.738;9.228;2024-01-25T12:43:10;10.90;1.00
336;DHT22;156;48.738;9.228;2024-01-25T12:45:37;11.10;1.00
336;DHT22;156;48.738;9.228;2024-01-25T12:48:05;11.00;1.00
336;DHT22;156;48.738;9.228;2024-01-25T12:50:34;11.60;1.00
336;DHT22;156;48.738;9.228;2024-01-25T12:53:01;12.30;1.00
336;DHT22;156;48.738;9.228;2024-01-25T12:55:30;12.70;1.00
336;DHT22;156;48.738;9.228;2024-01-25T12:57:58;13.10;1.00
336;DHT22;156;48.738;9.228;2024-01-25T13:00:25;13.50;1.00
336;DHT22;156;48.738;9.228;2024-01-25T13:02:52;14.00;1.00
336;DHT22;156;48.738;9.228;2024-01-25T13:05:20;14.50;1.00
336;DHT22;156;48.738;9.228;2024-01-25T13:07:47;14.60;1.00
336;DHT22;156;48.738;9.228;2024-01-25T13:10:14;14.40;1.00
336;DHT22;156;48.738;9.228;2024-01-25T13:12:42;14.40;1.00
336;DHT22;156;48.738;9.228;2024-01-25T13:15:09;14.50;1.00
336;DHT22;156;48.738;9.228;2024-01-25T13:17:37;14.50;1.00
336;DHT22;156;48.738;9.228;2024-01-25T13:20:04;14.60;1.00
336;DHT22;156;48.738;9.228;2024-01-25T13:22:32;14.30;1.00
336;DHT22;156;48.738;9.228;2024-01-25T13:24:59;13.90;1.00
336;DHT22;156;48.738;9.228;2024-01-25T13:27:26;13.70;1.00
336;DHT22;156;48.738;9.228;2024-01-25T13:29:55;13.50;1.00
336;DHT22;156;48.738;9.228;2024-01-25T13:32:22;13.10;1.00
336;DHT22;156;48.738;9.228;2024-01-25T13:34:50;12.80;1.00
336;DHT22;156;48.738;9.228;2024-01-25T13:37:16;12.60;1.00
336;DHT22;156;48.738;9.228;2024-01-25T13:39:43;12.20;1.00
336;DHT22;156;48.738;9.228;2024-01-25T13:42:10;12.40;1.00
336;DHT22;156;48.738;9.228;2024-01-25T13:44:37;12.80;1.00
336;DHT22;156;48.738;9.228;2024-01-25T13:47:06;12.90;1.00
336;DHT22;156;48.738;9.228;2024-01-25T13:49:33;13.10;1.00
336;DHT22;156;48.738;9.228;2024-01-25T13:52:01;13.00;1.00
336;DHT22;156;48.738;9.228;2024-01-25T13:54:29;13.20;1.00
336;DHT22;156;48.738;9.228;2024-01-25T13:56:56;13.50;1.00
336;DHT22;156;48.738;9.228;2024-01-25T13:59:23;13.50;1.00
336;DHT22;156;48.738;9.228;2024-01-25T14:01:51;13.30;1.00
336;DHT22;156;48.738;9.228;2024-01-25T14:04:19;13.20;1.00
336;DHT22;156;48.738;9.228;2024-01-25T14:06:46;13.00;1.00
336;DHT22;156;48.738;9.228;2024-01-25T14:09:13;12.90;1.00
336;DHT22;156;48.738;9.228;2024-01-25T14:11:40;13.00;1.00
336;DHT22;156;48.738;9.228;2024-01-25T14:14:07;13.00;1.00
336;DHT22;156;48.738;9.228;2024-01-25T14:16:35;13.00;1.00
336;DHT22;156;48.738;9.228;2024-01-25T14:19:02;13.10;1.00
336;DHT22;156;48.738;9.228;2024-01-25T14:21:31;13.00;1.00
336;DHT22;156;48.738;9.228;2024-01-25T14:23:58;12.70;1.00
336;DHT22;156;48.738;9.228;2024-01-25T14:26:25;12.50;1.00
336;DHT22;156;48.738;9.228;2024-01-25T14:28:52;12.60;1.00
336;DHT22;156;48.738;9.228;2024-01-25T14:31:19;13.10;1.00
336;DHT22;156;48.738;9.228;2024-01-25T14:33:46;12.90;1.00
336;DHT22;156;48.738;9.228;2024-01-25T14:36:13;12.70;1.00
336;DHT22;156;48.738;9.228;2024-01-25T14:38:41;12.30;1.00
336;DHT22;156;48.738;9.228;2024-01-25T14:41:09;12.20;1.00
336;DHT22;156;48.738;9.228;2024-01-25T14:43:37;12.10;1.00
336;DHT22;156;48.738;9.228;2024-01-25T14:46:04;11.80;1.00
336;DHT22;156;48.738;9.228;2024-01-25T14:48:31;11.70;1.00
336;DHT22;156;48.738;9.228;2024-01-25T14:50:58;11.30;1.00
336;DHT22;156;48.738;9.228;2024-01-25T14:53:25;11.00;44.00
336;DHT22;156;48.738;9.228;2024-01-25T14:55:54;10.90;99.90
336;DHT22;156;48.738;9.228;2024-01-25T14:58:20;10.70;99.90
336;DHT22;156;48.738;9.228;2024-01-25T15:00:49;10.70;99.90
336;DHT22;156;48.738;9.228;2024-01-25T15:03:16;10.70;99.90
336;DHT22;156;48.738;9.228;2024-01-25T15:05:43;10.70;99.90
336;DHT22;156;48.738;9.228;2024-01-25T15:08:10;10.60;99.90
336;DHT22;156;48.738;9.228;2024-01-25T15:10:37;10.60;99.90
336;DHT22;156;48.738;9.228;2024-01-25T15:13:05;10.70;99.90
336;DHT22;156;48.738;9.228;2024-01-25T15:15:32;10.60;99.90
336;DHT22;156;48.738;9.228;2024-01-25T15:17:59;10.70;99.90
336;DHT22;156;48.738;9.228;2024-01-25T15:20:26;10.80;99.90
336;DHT22;156;48.738;9.228;2024-01-25T15:22:54;10.70;99.90
336;DHT22;156;48.738;9.228;2024-01-25T15:25:23;10.50;99.90
336;DHT22;156;48.738;9.228;2024-01-25T15:27:52;10.60;99.90
336;DHT22;156;48.738;9.228;2024-01-25T15:30:20;10.50;99.90
336;DHT22;156;48.738;9.228;2024-01-25T15:32:47;10.40;99.90
336;DHT22;156;48.738;9.228;2024-01-25T15:35:14;10.40;99.90
336;DHT22;156;48.738;9.228;2024-01-25T15:37:41;10.40;99.90
336;DHT22;156;48.738;9.228;2024-01-25T15:40:09;10.40;99.90
336;DHT22;156;48.738;9.228;2024-01-25T15:42:38;10.30;99.90
336;DHT22;156;48.738;9.228;2024-01-25T15:45:05;10.20;99.90
336;DHT22;156;48.738;9.228;2024-01-25T15:47:35;10.20;99.90
336;DHT22;156;48.738;9.228;2024-01-25T15:50:02;10.20;99.90
336;DHT22;156;48.738;9.228;2024-01-25T15:52:30;10.20;99.90
336;DHT22;156;48.738;9.228;2024-01-25T15:54:57;10.30;99.90
336;DHT22;156;48.738;9.228;2024-01-25T15:57:24;10.20;99.90
336;DHT22;156;48.738;9.228;2024-01-25T15:59:51;10.10;99.90
336;DHT22;156;48.738;9.228;2024-01-25T16:02:18;10.10;99.90
336;DHT22;156;48.738;9.228;2024-01-25T16:04:47;10.00;99.90
336;DHT22;156;48.738;9.228;2024-01-25T16:07:13;9.90;1.00
336;DHT22;156;48.738;9.228;2024-01-25T16:09:41;9.90;1.00
336;DHT22;156;48.738;9.228;2024-01-25T16:12:08;9.90;1.00
336;DHT22;156;48.738;9.228;2024-01-25T16:14:36;10.00;1.00
336;DHT22;156;48.738;9.228;2024-01-25T16:17:03;10.00;1.00
336;DHT22;156;48.738;9.228;2024-01-25T16:19:30;10.00;1.00
336;DHT22;156;48.738;9.228;2024-01-25T16:21:58;10.00;1.00
336;DHT22;156;48.738;9.228;2024-01-25T16:24:25;9.90;1.00
336;DHT22;156;48.738;9.228;2024-01-25T16:26:52;9.90;1.00
336;DHT22;156;48.738;9.228;2024-01-25T16:29:19;9.80;1.00
336;DHT22;156;48.738;9.228;2024-01-25T16:31:46;9.90;1.00
336;DHT22;156;48.738;9.228;2024-01-25T16:34:13;10.00;1.00
336;DHT22;156;48.738;9.228;2024-01-25T16:36:40;10.10;1.00
336;DHT22;156;48.738;9.228;2024-01-25T16:39:08;10.20;1.00
336;DHT22;156;48.738;9.228;2024-01-25T16:41:35;10.10;1.00
336;DHT22;156;48.738;9.228;2024-01-25T16:44:02;10.00;1.00
336;DHT22;156;48.738;9.228;2024-01-25T16:46:29;9.90;1.00
336;DHT22;156;48.738;9.228;2024-01-25T16:48:56;9.90;1.00
336;DHT22;156;48.738;9.228;2024-01-25T16:51:24;9.80;1.00
336;DHT22;156;48.738;9.228;2024-01-25T16:53:50;9.80;1.00
336;DHT22;156;48.738;9.228;2024-01-25T16:56:19;9.70;1.00